Terminal Aerodrome Forecast
Issued by NWS Cleveland, OH

Home | Current Version | Previous Version | Text Only | Print | Product List | Glossary On
Versions: 1 2 3 4 5 6 7 8 9 10 11 12 13 14 15 16
000
FTUS41 KCLE 081747 CCA
TAFYNG
TAF COR
KYNG 081747Z 0818/0918 19008KT 3SM -SN OVC025
      TEMPO 0818/0820 1SM -RASN BR OVC012
     FM082000 23005KT 2SM -RASN BR OVC012
      TEMPO 0820/0824 3/4SM -SN BR OVC006
     FM090000 27005KT 4SM BR OVC012
     FM090600 28004KT 2SM -SN BR OVC006
     FM091500 28007KT 5SM -SHSN OVC012=

USA.gov is the U.S. government's official web portal to all federal, state and local government web resources and services.